sensor_id;sensor_type;location;lat;lon;timestamp;P1;durP1;ratioP1;P2;durP2;ratioP2
41059;SDS011;26811;53.160;8.202;2023-04-06T00:02:16;24.02;;;12.95;;
41059;SDS011;26811;53.160;8.202;2023-04-06T00:07:17;24.00;;;12.90;;
41059;SDS011;26811;53.160;8.202;2023-04-06T00:12:17;20.33;;;11.93;;
41059;SDS011;26811;53.160;8.202;2023-04-06T00:17:18;20.80;;;13.07;;
41059;SDS011;26811;53.160;8.202;2023-04-06T00:22:19;22.77;;;13.30;;
41059;SDS011;26811;53.160;8.202;2023-04-06T00:27:19;23.75;;;14.23;;
41059;SDS011;26811;53.160;8.202;2023-04-06T00:32:20;20.30;;;13.40;;
41059;SDS011;26811;53.160;8.202;2023-04-06T00:37:20;20.90;;;13.40;;
41059;SDS011;26811;53.160;8.202;2023-04-06T00:42:21;22.67;;;13.07;;
41059;SDS011;26811;53.160;8.202;2023-04-06T00:47:25;23.42;;;13.93;;
41059;SDS011;26811;53.160;8.202;2023-04-06T00:52:26;25.65;;;13.77;;
41059;SDS011;26811;53.160;8.202;2023-04-06T00:57:27;25.05;;;14.52;;
41059;SDS011;26811;53.160;8.202;2023-04-06T01:02:28;23.95;;;14.88;;
41059;SDS011;26811;53.160;8.202;2023-04-06T01:07:28;23.77;;;14.88;;
41059;SDS011;26811;53.160;8.202;2023-04-06T01:12:29;24.05;;;14.93;;
41059;SDS011;26811;53.160;8.202;2023-04-06T01:17:30;25.88;;;15.95;;
41059;SDS011;26811;53.160;8.202;2023-04-06T01:22:30;26.27;;;15.98;;
41059;SDS011;26811;53.160;8.202;2023-04-06T01:27:31;26.02;;;16.52;;
41059;SDS011;26811;53.160;8.202;2023-04-06T01:32:31;27.92;;;16.10;;
41059;SDS011;26811;53.160;8.202;2023-04-06T01:37:32;31.98;;;17.98;;
41059;SDS011;26811;53.160;8.202;2023-04-06T01:42:32;30.38;;;17.55;;
41059;SDS011;26811;53.160;8.202;2023-04-06T01:47:33;33.65;;;18.33;;
41059;SDS011;26811;53.160;8.202;2023-04-06T01:52:33;30.85;;;17.55;;
41059;SDS011;26811;53.160;8.202;2023-04-06T01:57:34;33.10;;;18.45;;
41059;SDS011;26811;53.160;8.202;2023-04-06T02:02:35;32.00;;;18.63;;
41059;SDS011;26811;53.160;8.202;2023-04-06T02:07:35;33.67;;;18.77;;
41059;SDS011;26811;53.160;8.202;2023-04-06T02:12:36;33.30;;;18.80;;
41059;SDS011;26811;53.160;8.202;2023-04-06T02:17:36;33.78;;;18.85;;
41059;SDS011;26811;53.160;8.202;2023-04-06T02:22:37;34.83;;;18.25;;
41059;SDS011;26811;53.160;8.202;2023-04-06T02:27:37;33.80;;;19.40;;
41059;SDS011;26811;53.160;8.202;2023-04-06T02:32:38;34.38;;;18.80;;
41059;SDS011;26811;53.160;8.202;2023-04-06T02:37:38;36.22;;;20.20;;
41059;SDS011;26811;53.160;8.202;2023-04-06T02:42:39;39.88;;;19.10;;
41059;SDS011;26811;53.160;8.202;2023-04-06T02:47:39;37.30;;;19.83;;
41059;SDS011;26811;53.160;8.202;2023-04-06T02:52:40;33.05;;;18.33;;
41059;SDS011;26811;53.160;8.202;2023-04-06T02:57:41;35.65;;;19.95;;
41059;SDS011;26811;53.160;8.202;2023-04-06T03:02:42;34.20;;;19.50;;
41059;SDS011;26811;53.160;8.202;2023-04-06T03:07:42;31.73;;;18.35;;
41059;SDS011;26811;53.160;8.202;2023-04-06T03:12:43;33.38;;;18.13;;
41059;SDS011;26811;53.160;8.202;2023-04-06T03:17:43;32.58;;;19.13;;
41059;SDS011;26811;53.160;8.202;2023-04-06T03:22:44;38.17;;;20.50;;
41059;SDS011;26811;53.160;8.202;2023-04-06T03:27:44;31.10;;;19.10;;
41059;SDS011;26811;53.160;8.202;2023-04-06T03:32:45;35.10;;;19.45;;
41059;SDS011;26811;53.160;8.202;2023-04-06T03:37:45;36.70;;;19.27;;
41059;SDS011;26811;53.160;8.202;2023-04-06T03:42:46;37.95;;;19.88;;
41059;SDS011;26811;53.160;8.202;2023-04-06T03:47:46;36.17;;;19.55;;
41059;SDS011;26811;53.160;8.202;2023-04-06T03:52:47;35.65;;;20.20;;
41059;SDS011;26811;53.160;8.202;2023-04-06T03:57:47;34.67;;;19.58;;
41059;SDS011;26811;53.160;8.202;2023-04-06T04:02:48;34.97;;;20.13;;
41059;SDS011;26811;53.160;8.202;2023-04-06T04:07:48;37.17;;;20.58;;
41059;SDS011;26811;53.160;8.202;2023-04-06T04:12:49;39.03;;;21.60;;
41059;SDS011;26811;53.160;8.202;2023-04-06T04:17:49;37.22;;;21.15;;
41059;SDS011;26811;53.160;8.202;2023-04-06T04:22:50;35.75;;;20.80;;
41059;SDS011;26811;53.160;8.202;2023-04-06T04:27:51;37.33;;;20.65;;
41059;SDS011;26811;53.160;8.202;2023-04-06T04:32:51;40.40;;;22.13;;
41059;SDS011;26811;53.160;8.202;2023-04-06T04:37:52;37.10;;;20.33;;
41059;SDS011;26811;53.160;8.202;2023-04-06T04:42:52;36.85;;;20.50;;
41059;SDS011;26811;53.160;8.202;2023-04-06T04:47:53;35.08;;;19.85;;
41059;SDS011;26811;53.160;8.202;2023-04-06T04:52:54;39.08;;;20.98;;
41059;SDS011;26811;53.160;8.202;2023-04-06T04:57:54;38.08;;;20.08;;
41059;SDS011;26811;53.160;8.202;2023-04-06T05:02:55;32.45;;;19.83;;
41059;SDS011;26811;53.160;8.202;2023-04-06T05:07:56;34.53;;;19.42;;
41059;SDS011;26811;53.160;8.202;2023-04-06T05:12:56;36.13;;;19.13;;
41059;SDS011;26811;53.160;8.202;2023-04-06T05:17:57;39.45;;;19.08;;
41059;SDS011;26811;53.160;8.202;2023-04-06T05:22:57;31.90;;;17.65;;
41059;SDS011;26811;53.160;8.202;2023-04-06T05:27:58;29.95;;;17.77;;
41059;SDS011;26811;53.160;8.202;2023-04-06T05:32:59;29.70;;;17.20;;
41059;SDS011;26811;53.160;8.202;2023-04-06T05:37:59;29.08;;;16.67;;
41059;SDS011;26811;53.160;8.202;2023-04-06T05:43:00;30.40;;;16.92;;
41059;SDS011;26811;53.160;8.202;2023-04-06T05:48:01;31.05;;;17.30;;
41059;SDS011;26811;53.160;8.202;2023-04-06T05:53:02;29.15;;;16.67;;
41059;SDS011;26811;53.160;8.202;2023-04-06T05:58:02;26.98;;;16.05;;
41059;SDS011;26811;53.160;8.202;2023-04-06T06:03:03;24.75;;;14.90;;
41059;SDS011;26811;53.160;8.202;2023-04-06T06:08:05;26.33;;;15.65;;
41059;SDS011;26811;53.160;8.202;2023-04-06T06:13:06;23.88;;;15.10;;
41059;SDS011;26811;53.160;8.202;2023-04-06T06:18:06;22.33;;;14.15;;
41059;SDS011;26811;53.160;8.202;2023-04-06T06:23:07;29.33;;;14.10;;
41059;SDS011;26811;53.160;8.202;2023-04-06T06:28:08;23.50;;;14.02;;
41059;SDS011;26811;53.160;8.202;2023-04-06T06:33:08;21.55;;;13.20;;
41059;SDS011;26811;53.160;8.202;2023-04-06T06:38:09;21.45;;;13.48;;
41059;SDS011;26811;53.160;8.202;2023-04-06T06:43:09;22.85;;;13.10;;
41059;SDS011;26811;53.160;8.202;2023-04-06T06:48:10;22.50;;;12.40;;
41059;SDS011;26811;53.160;8.202;2023-04-06T06:53:10;20.55;;;11.48;;
41059;SDS011;26811;53.160;8.202;2023-04-06T06:58:11;19.45;;;10.25;;
41059;SDS011;26811;53.160;8.202;2023-04-06T07:03:12;18.27;;;10.90;;
41059;SDS011;26811;53.160;8.202;2023-04-06T07:08:12;16.90;;;9.70;;
41059;SDS011;26811;53.160;8.202;2023-04-06T07:13:13;14.98;;;9.77;;
41059;SDS011;26811;53.160;8.202;2023-04-06T07:18:20;15.55;;;10.10;;
41059;SDS011;26811;53.160;8.202;2023-04-06T07:23:22;16.75;;;10.07;;
41059;SDS011;26811;53.160;8.202;2023-04-06T07:28:22;13.45;;;10.18;;
41059;SDS011;26811;53.160;8.202;2023-04-06T07:33:23;15.20;;;8.80;;
41059;SDS011;26811;53.160;8.202;2023-04-06T07:38:23;12.45;;;9.48;;
41059;SDS011;26811;53.160;8.202;2023-04-06T07:43:24;13.70;;;9.27;;
41059;SDS011;26811;53.160;8.202;2023-04-06T07:48:25;13.00;;;8.98;;
41059;SDS011;26811;53.160;8.202;2023-04-06T07:53:25;12.23;;;9.10;;
41059;SDS011;26811;53.160;8.202;2023-04-06T07:58:26;13.60;;;8.80;;
41059;SDS011;26811;53.160;8.202;2023-04-06T08:03:26;13.52;;;9.05;;
41059;SDS011;26811;53.160;8.202;2023-04-06T08:08:27;12.45;;;8.23;;
41059;SDS011;26811;53.160;8.202;2023-04-06T08:13:28;10.82;;;8.23;;
41059;SDS011;26811;53.160;8.202;2023-04-06T08:18:28;11.18;;;8.27;;
41059;SDS011;26811;53.160;8.202;2023-04-06T08:23:29;13.55;;;9.25;;
41059;SDS011;26811;53.160;8.202;2023-04-06T08:28:30;13.00;;;9.02;;
41059;SDS011;26811;53.160;8.202;2023-04-06T08:33:31;13.43;;;8.85;;
41059;SDS011;26811;53.160;8.202;2023-04-06T08:38:31;10.85;;;8.05;;
41059;SDS011;26811;53.160;8.202;2023-04-06T08:43:32;13.57;;;9.20;;
41059;SDS011;26811;53.160;8.202;2023-04-06T08:48:40;12.13;;;8.18;;
41059;SDS011;26811;53.160;8.202;2023-04-06T08:53:41;14.13;;;8.95;;
41059;SDS011;26811;53.160;8.202;2023-04-06T08:58:42;13.57;;;8.30;;
41059;SDS011;26811;53.160;8.202;2023-04-06T09:03:43;12.25;;;8.52;;
41059;SDS011;26811;53.160;8.202;2023-04-06T09:08:45;13.30;;;8.45;;
41059;SDS011;26811;53.160;8.202;2023-04-06T09:13:52;18.13;;;8.75;;
41059;SDS011;26811;53.160;8.202;2023-04-06T09:18:54;16.30;;;9.05;;
41059;SDS011;26811;53.160;8.202;2023-04-06T09:24:05;14.43;;;9.48;;
41059;SDS011;26811;53.160;8.202;2023-04-06T09:29:07;11.50;;;9.13;;
41059;SDS011;26811;53.160;8.202;2023-04-06T09:34:07;16.73;;;10.00;;
41059;SDS011;26811;53.160;8.202;2023-04-06T09:39:08;13.73;;;8.90;;
41059;SDS011;26811;53.160;8.202;2023-04-06T09:44:12;15.57;;;10.10;;
41059;SDS011;26811;53.160;8.202;2023-04-06T09:49:13;12.95;;;9.25;;
41059;SDS011;26811;53.160;8.202;2023-04-06T09:54:23;14.35;;;9.98;;
41059;SDS011;26811;53.160;8.202;2023-04-06T09:59:35;13.57;;;9.45;;
41059;SDS011;26811;53.160;8.202;2023-04-06T10:04:43;14.80;;;10.10;;
41059;SDS011;26811;53.160;8.202;2023-04-06T10:09:53;16.92;;;10.30;;
41059;SDS011;26811;53.160;8.202;2023-04-06T10:14:55;17.27;;;10.40;;
41059;SDS011;26811;53.160;8.202;2023-04-06T10:19:59;15.60;;;10.70;;
41059;SDS011;26811;53.160;8.202;2023-04-06T10:25:08;24.00;;;13.68;;
41059;SDS011;26811;53.160;8.202;2023-04-06T10:30:09;18.65;;;13.23;;
41059;SDS011;26811;53.160;8.202;2023-04-06T10:35:10;19.40;;;13.55;;
41059;SDS011;26811;53.160;8.202;2023-04-06T10:40:22;23.67;;;13.60;;
41059;SDS011;26811;53.160;8.202;2023-04-06T10:45:25;18.52;;;12.93;;
41059;SDS011;26811;53.160;8.202;2023-04-06T10:50:26;20.90;;;13.45;;
41059;SDS011;26811;53.160;8.202;2023-04-06T10:55:29;18.48;;;12.55;;
41059;SDS011;26811;53.160;8.202;2023-04-06T11:00:31;19.77;;;12.57;;
41059;SDS011;26811;53.160;8.202;2023-04-06T11:05:31;19.63;;;12.55;;
41059;SDS011;26811;53.160;8.202;2023-04-06T11:10:32;17.85;;;12.27;;
41059;SDS011;26811;53.160;8.202;2023-04-06T11:15:35;17.58;;;12.02;;
41059;SDS011;26811;53.160;8.202;2023-04-06T11:20:36;18.70;;;12.52;;
41059;SDS011;26811;53.160;8.202;2023-04-06T11:25:36;17.70;;;12.00;;
41059;SDS011;26811;53.160;8.202;2023-04-06T11:30:37;18.30;;;12.15;;
41059;SDS011;26811;53.160;8.202;2023-04-06T11:35:38;18.40;;;12.15;;
41059;SDS011;26811;53.160;8.202;2023-04-06T11:40:38;21.05;;;12.15;;
41059;SDS011;26811;53.160;8.202;2023-04-06T11:45:42;19.05;;;12.30;;
41059;SDS011;26811;53.160;8.202;2023-04-06T11:50:43;19.75;;;12.40;;
41059;SDS011;26811;53.160;8.202;2023-04-06T11:55:46;22.80;;;13.55;;
41059;SDS011;26811;53.160;8.202;2023-04-06T12:00:47;25.25;;;16.15;;
41059;SDS011;26811;53.160;8.202;2023-04-06T12:05:48;27.45;;;17.20;;
41059;SDS011;26811;53.160;8.202;2023-04-06T12:10:49;27.02;;;16.85;;
41059;SDS011;26811;53.160;8.202;2023-04-06T12:15:50;25.88;;;16.85;;
41059;SDS011;26811;53.160;8.202;2023-04-06T12:20:51;23.90;;;16.08;;
41059;SDS011;26811;53.160;8.202;2023-04-06T12:25:52;24.60;;;15.70;;
41059;SDS011;26811;53.160;8.202;2023-04-06T12:30:52;26.13;;;16.33;;
41059;SDS011;26811;53.160;8.202;2023-04-06T12:35:54;23.05;;;14.48;;
41059;SDS011;26811;53.160;8.202;2023-04-06T12:40:54;25.02;;;15.55;;
41059;SDS011;26811;53.160;8.202;2023-04-06T12:45:55;29.98;;;15.85;;
41059;SDS011;26811;53.160;8.202;2023-04-06T12:50:59;24.95;;;14.90;;
41059;SDS011;26811;53.160;8.202;2023-04-06T12:56:02;22.77;;;14.05;;
41059;SDS011;26811;53.160;8.202;2023-04-06T13:01:11;20.60;;;13.98;;
41059;SDS011;26811;53.160;8.202;2023-04-06T13:06:12;25.60;;;13.90;;
41059;SDS011;26811;53.160;8.202;2023-04-06T13:11:14;26.45;;;13.63;;
41059;SDS011;26811;53.160;8.202;2023-04-06T13:16:15;21.35;;;13.15;;
41059;SDS011;26811;53.160;8.202;2023-04-06T13:21:15;21.58;;;12.98;;
41059;SDS011;26811;53.160;8.202;2023-04-06T13:26:16;20.55;;;12.05;;
41059;SDS011;26811;53.160;8.202;2023-04-06T13:31:17;21.45;;;14.00;;
41059;SDS011;26811;53.160;8.202;2023-04-06T13:36:18;22.63;;;12.93;;
41059;SDS011;26811;53.160;8.202;2023-04-06T13:41:19;19.20;;;12.00;;
41059;SDS011;26811;53.160;8.202;2023-04-06T13:46:21;20.15;;;12.55;;
41059;SDS011;26811;53.160;8.202;2023-04-06T13:51:23;20.92;;;12.77;;
41059;SDS011;26811;53.160;8.202;2023-04-06T13:56:24;21.85;;;12.73;;
41059;SDS011;26811;53.160;8.202;2023-04-06T14:01:25;23.65;;;13.55;;
41059;SDS011;26811;53.160;8.202;2023-04-06T14:06:26;24.02;;;13.07;;
41059;SDS011;26811;53.160;8.202;2023-04-06T14:11:27;20.52;;;12.85;;
41059;SDS011;26811;53.160;8.202;2023-04-06T14:16:28;19.25;;;12.90;;
41059;SDS011;26811;53.160;8.202;2023-04-06T14:21:28;21.70;;;14.20;;
41059;SDS011;26811;53.160;8.202;2023-04-06T14:26:29;23.15;;;13.63;;
41059;SDS011;26811;53.160;8.202;2023-04-06T14:31:30;21.92;;;12.65;;
41059;SDS011;26811;53.160;8.202;2023-04-06T14:36:31;23.88;;;13.57;;
41059;SDS011;26811;53.160;8.202;2023-04-06T14:41:38;21.15;;;12.80;;
41059;SDS011;26811;53.160;8.202;2023-04-06T14:46:39;24.80;;;13.32;;
41059;SDS011;26811;53.160;8.202;2023-04-06T14:51:40;21.17;;;12.95;;
41059;SDS011;26811;53.160;8.202;2023-04-06T14:56:40;22.60;;;12.45;;
41059;SDS011;26811;53.160;8.202;2023-04-06T15:01:42;20.80;;;11.68;;
41059;SDS011;26811;53.160;8.202;2023-04-06T15:06:43;19.63;;;11.52;;
41059;SDS011;26811;53.160;8.202;2023-04-06T15:11:43;20.70;;;11.40;;
41059;SDS011;26811;53.160;8.202;2023-04-06T15:16:44;22.77;;;11.52;;
41059;SDS011;26811;53.160;8.202;2023-04-06T15:21:45;22.00;;;11.95;;
41059;SDS011;26811;53.160;8.202;2023-04-06T15:26:45;23.90;;;12.13;;
41059;SDS011;26811;53.160;8.202;2023-04-06T15:31:46;20.23;;;11.30;;
41059;SDS011;26811;53.160;8.202;2023-04-06T15:36:46;20.77;;;12.05;;
41059;SDS011;26811;53.160;8.202;2023-04-06T15:41:47;20.63;;;11.60;;
41059;SDS011;26811;53.160;8.202;2023-04-06T15:46:47;18.67;;;11.23;;
41059;SDS011;26811;53.160;8.202;2023-04-06T15:51:48;20.15;;;11.27;;
41059;SDS011;26811;53.160;8.202;2023-04-06T15:56:50;19.02;;;11.15;;
41059;SDS011;26811;53.160;8.202;2023-04-06T16:01:50;20.77;;;11.18;;
41059;SDS011;26811;53.160;8.202;2023-04-06T16:06:52;18.63;;;11.20;;
41059;SDS011;26811;53.160;8.202;2023-04-06T16:11:53;21.73;;;10.90;;
41059;SDS011;26811;53.160;8.202;2023-04-06T16:16:54;20.08;;;11.60;;
41059;SDS011;26811;53.160;8.202;2023-04-06T16:21:54;22.30;;;11.65;;
41059;SDS011;26811;53.160;8.202;2023-04-06T16:26:55;18.42;;;11.20;;
41059;SDS011;26811;53.160;8.202;2023-04-06T16:31:56;20.08;;;10.85;;
41059;SDS011;26811;53.160;8.202;2023-04-06T16:36:57;19.63;;;10.77;;
41059;SDS011;26811;53.160;8.202;2023-04-06T16:41:58;20.63;;;11.77;;
41059;SDS011;26811;53.160;8.202;2023-04-06T16:46:58;20.52;;;11.68;;
41059;SDS011;26811;53.160;8.202;2023-04-06T16:51:59;22.15;;;12.02;;
41059;SDS011;26811;53.160;8.202;2023-04-06T16:57:02;22.23;;;13.52;;
41059;SDS011;26811;53.160;8.202;2023-04-06T17:02:02;24.52;;;13.32;;
41059;SDS011;26811;53.160;8.202;2023-04-06T17:07:03;24.63;;;14.63;;
41059;SDS011;26811;53.160;8.202;2023-04-06T17:12:03;21.83;;;13.05;;
41059;SDS011;26811;53.160;8.202;2023-04-06T17:17:04;26.40;;;14.60;;
41059;SDS011;26811;53.160;8.202;2023-04-06T17:22:05;24.02;;;13.52;;
41059;SDS011;26811;53.160;8.202;2023-04-06T17:27:06;23.98;;;13.63;;
41059;SDS011;26811;53.160;8.202;2023-04-06T17:32:06;26.50;;;14.73;;
41059;SDS011;26811;53.160;8.202;2023-04-06T17:37:07;23.48;;;13.55;;
41059;SDS011;26811;53.160;8.202;2023-04-06T17:42:08;28.90;;;14.15;;
41059;SDS011;26811;53.160;8.202;2023-04-06T17:47:08;26.70;;;14.52;;
41059;SDS011;26811;53.160;8.202;2023-04-06T17:52:09;27.50;;;14.15;;
41059;SDS011;26811;53.160;8.202;2023-04-06T17:57:10;27.73;;;14.85;;
41059;SDS011;26811;53.160;8.202;2023-04-06T18:02:11;27.95;;;14.55;;
41059;SDS011;26811;53.160;8.202;2023-04-06T18:07:11;26.15;;;15.07;;
41059;SDS011;26811;53.160;8.202;2023-04-06T18:12:12;27.27;;;15.02;;
41059;SDS011;26811;53.160;8.202;2023-04-06T18:17:13;27.27;;;14.43;;
41059;SDS011;26811;53.160;8.202;2023-04-06T18:22:14;24.48;;;14.00;;
41059;SDS011;26811;53.160;8.202;2023-04-06T18:27:15;25.63;;;14.18;;
41059;SDS011;26811;53.160;8.202;2023-04-06T18:32:16;25.73;;;14.50;;
41059;SDS011;26811;53.160;8.202;2023-04-06T18:37:23;29.33;;;14.80;;
41059;SDS011;26811;53.160;8.202;2023-04-06T18:42:24;34.22;;;16.52;;
41059;SDS011;26811;53.160;8.202;2023-04-06T18:47:25;31.60;;;16.80;;
41059;SDS011;26811;53.160;8.202;2023-04-06T18:52:25;37.88;;;17.90;;
41059;SDS011;26811;53.160;8.202;2023-04-06T18:57:26;37.30;;;18.90;;
41059;SDS011;26811;53.160;8.202;2023-04-06T19:02:27;36.33;;;18.92;;
41059;SDS011;26811;53.160;8.202;2023-04-06T19:07:27;36.60;;;17.77;;
41059;SDS011;26811;53.160;8.202;2023-04-06T19:12:28;32.90;;;16.10;;
41059;SDS011;26811;53.160;8.202;2023-04-06T19:17:28;32.90;;;15.10;;
41059;SDS011;26811;53.160;8.202;2023-04-06T19:22:29;28.25;;;14.13;;
41059;SDS011;26811;53.160;8.202;2023-04-06T19:27:30;27.17;;;13.95;;
41059;SDS011;26811;53.160;8.202;2023-04-06T19:32:30;31.70;;;15.00;;
41059;SDS011;26811;53.160;8.202;2023-04-06T19:37:31;132.23;;;52.35;;
41059;SDS011;26811;53.160;8.202;2023-04-06T19:42:33;35.28;;;18.10;;
41059;SDS011;26811;53.160;8.202;2023-04-06T19:47:37;30.38;;;14.75;;
41059;SDS011;26811;53.160;8.202;2023-04-06T19:52:38;29.23;;;14.13;;
41059;SDS011;26811;53.160;8.202;2023-04-06T19:57:38;31.13;;;14.38;;
41059;SDS011;26811;53.160;8.202;2023-04-06T20:02:39;29.65;;;14.40;;
41059;SDS011;26811;53.160;8.202;2023-04-06T20:07:39;30.60;;;14.77;;
41059;SDS011;26811;53.160;8.202;2023-04-06T20:12:40;28.67;;;14.52;;
41059;SDS011;26811;53.160;8.202;2023-04-06T20:17:42;35.13;;;14.65;;
41059;SDS011;26811;53.160;8.202;2023-04-06T20:22:42;28.17;;;14.73;;
41059;SDS011;26811;53.160;8.202;2023-04-06T20:27:43;31.02;;;17.80;;
41059;SDS011;26811;53.160;8.202;2023-04-06T20:32:44;37.92;;;19.30;;
41059;SDS011;26811;53.160;8.202;2023-04-06T20:37:45;47.20;;;23.45;;
41059;SDS011;26811;53.160;8.202;2023-04-06T20:42:45;34.10;;;17.17;;
41059;SDS011;26811;53.160;8.202;2023-04-06T20:47:46;31.85;;;16.38;;
41059;SDS011;26811;53.160;8.202;2023-04-06T20:52:51;32.17;;;15.35;;
41059;SDS011;26811;53.160;8.202;2023-04-06T20:57:51;34.30;;;15.75;;
41059;SDS011;26811;53.160;8.202;2023-04-06T21:02:52;31.75;;;15.63;;
41059;SDS011;26811;53.160;8.202;2023-04-06T21:07:52;27.30;;;15.10;;
41059;SDS011;26811;53.160;8.202;2023-04-06T21:12:53;32.03;;;15.38;;
41059;SDS011;26811;53.160;8.202;2023-04-06T21:17:53;30.50;;;16.25;;
41059;SDS011;26811;53.160;8.202;2023-04-06T21:22:54;39.72;;;17.23;;
41059;SDS011;26811;53.160;8.202;2023-04-06T21:27:54;34.45;;;16.58;;
41059;SDS011;26811;53.160;8.202;2023-04-06T21:32:55;250.63;;;78.97;;
41059;SDS011;26811;53.160;8.202;2023-04-06T21:37:55;149.82;;;48.72;;
41059;SDS011;26811;53.160;8.202;2023-04-06T21:42:56;140.88;;;47.28;;
41059;SDS011;26811;53.160;8.202;2023-04-06T21:47:57;53.10;;;24.10;;
41059;SDS011;26811;53.160;8.202;2023-04-06T21:52:58;55.38;;;23.80;;
41059;SDS011;26811;53.160;8.202;2023-04-06T21:57:58;92.70;;;35.60;;
41059;SDS011;26811;53.160;8.202;2023-04-06T22:02:59;86.97;;;33.20;;
41059;SDS011;26811;53.160;8.202;2023-04-06T22:07:59;65.80;;;28.08;;
41059;SDS011;26811;53.160;8.202;2023-04-06T22:13:01;141.85;;;47.90;;
41059;SDS011;26811;53.160;8.202;2023-04-06T22:18:01;133.85;;;44.90;;
41059;SDS011;26811;53.160;8.202;2023-04-06T22:23:02;155.73;;;65.57;;
41059;SDS011;26811;53.160;8.202;2023-04-06T22:28:02;89.40;;;42.67;;
41059;SDS011;26811;53.160;8.202;2023-04-06T22:33:05;91.33;;;46.67;;
41059;SDS011;26811;53.160;8.202;2023-04-06T22:38:05;63.42;;;36.15;;
41059;SDS011;26811;53.160;8.202;2023-04-06T22:43:06;46.28;;;24.88;;
41059;SDS011;26811;53.160;8.202;2023-04-06T22:48:07;43.03;;;23.27;;
41059;SDS011;26811;53.160;8.202;2023-04-06T22:53:07;40.47;;;21.92;;
41059;SDS011;26811;53.160;8.202;2023-04-06T22:58:08;42.05;;;21.05;;
41059;SDS011;26811;53.160;8.202;2023-04-06T23:03:08;37.33;;;20.92;;
41059;SDS011;26811;53.160;8.202;2023-04-06T23:08:10;33.50;;;18.90;;
41059;SDS011;26811;53.160;8.202;2023-04-06T23:13:11;27.73;;;16.67;;
41059;SDS011;26811;53.160;8.202;2023-04-06T23:18:11;29.58;;;15.43;;
41059;SDS011;26811;53.160;8.202;2023-04-06T23:23:12;28.65;;;16.25;;
41059;SDS011;26811;53.160;8.202;2023-04-06T23:28:12;24.00;;;14.43;;
41059;SDS011;26811;53.160;8.202;2023-04-06T23:33:13;30.00;;;15.32;;
41059;SDS011;26811;53.160;8.202;2023-04-06T23:38:13;24.45;;;15.02;;
41059;SDS011;26811;53.160;8.202;2023-04-06T23:43:14;22.80;;;14.93;;
41059;SDS011;26811;53.160;8.202;2023-04-06T23:48:15;31.67;;;16.08;;
41059;SDS011;26811;53.160;8.202;2023-04-06T23:53:15;27.38;;;15.93;;
41059;SDS011;26811;53.160;8.202;2023-04-06T23:58:16;30.00;;;16.15;;
